CYHI

Details ICAO CYHI (YHI)
Name Ulukhaktok Airport
Region Canada
Timezone America/Yellowknife (UTC-6.0)
Plans Departing 8
Arriving 16
Stats Elevation 118 ft / 36 m (AMSL)
Location 70.762900° -117.806000°
Runways 1
Magnetic Variation 17.227° E
Sunrise Unknown / Unknown
Sunset Unknown / Unknown
Advertisement - Login to hide

Runways

ID Width Length Bearing (true/mag) Surface Threshold Overrun Markings Lighting
06 164 ft / 50 m 4,598 ft / 1,402 m 61.15° / 43.93° GRAVEL 0 ft / 0 m 0 ft / 0 m NONE
24 164 ft / 50 m 4,598 ft / 1,402 m 241.19° / 223.96° GRAVEL 0 ft / 0 m 0 ft / 0 m NONE

Map

Weather


0- 5 10 15 20 25 30 35+ Temperature / °C

Clouds and Precipitation
Forecast for 2020-07-15 00:00 UTC. Updated an hour ago

Ground ~20,000 ft ~40,000 ft Winds

METAR

CYHI 142200Z 21007KT 15SM BCFG VCFG FEW003 SCT030 FEW210 08/04 A2986 RMK FG4SF1SC1CS1 SF TR SC TR CS TR VIS S-W 2 / FG BNK S-W STTN SLP116

TAF

TAF AMD TAF AMD CYHI 142104Z 1421/1424 21005KT P6SM SCT004 TEMPO 1421/1424 1SM BR BKN004 RMK NXT FCST WILL BE ISSUED AT 151545Z

Frequencies

Unicom 122.10 MHz Mandatory Frequency
Warning: Do not use this data for real-world aviation or navigation. No guarantee of current accuracy is given.